sensor_id;sensor_type;location;lat;lon;timestamp;temperature;humidity
41437;DHT22;27178;49.460;10.850;2023-02-21T00:01:33;12.30;65.70
41437;DHT22;27178;49.460;10.850;2023-02-21T00:04:18;12.30;65.70
41437;DHT22;27178;49.460;10.850;2023-02-21T00:07:04;12.30;65.80
41437;DHT22;27178;49.460;10.850;2023-02-21T00:09:50;12.30;65.80
41437;DHT22;27178;49.460;10.850;2023-02-21T00:12:36;12.30;65.90
41437;DHT22;27178;49.460;10.850;2023-02-21T00:15:23;12.30;65.90
41437;DHT22;27178;49.460;10.850;2023-02-21T00:18:09;12.30;66.00
41437;DHT22;27178;49.460;10.850;2023-02-21T00:20:54;12.20;66.00
41437;DHT22;27178;49.460;10.850;2023-02-21T00:23:40;12.20;66.10
41437;DHT22;27178;49.460;10.850;2023-02-21T00:26:26;12.20;66.10
41437;DHT22;27178;49.460;10.850;2023-02-21T00:29:11;12.20;66.20
41437;DHT22;27178;49.460;10.850;2023-02-21T00:31:59;12.20;66.20
41437;DHT22;27178;49.460;10.850;2023-02-21T00:34:44;12.20;66.30
41437;DHT22;27178;49.460;10.850;2023-02-21T00:37:30;12.10;66.20
41437;DHT22;27178;49.460;10.850;2023-02-21T00:40:15;12.10;66.30
41437;DHT22;27178;49.460;10.850;2023-02-21T00:43:02;12.10;66.40
41437;DHT22;27178;49.460;10.850;2023-02-21T00:45:47;12.10;66.40
41437;DHT22;27178;49.460;10.850;2023-02-21T00:48:34;12.10;66.50
41437;DHT22;27178;49.460;10.850;2023-02-21T00:51:21;12.10;66.50
41437;DHT22;27178;49.460;10.850;2023-02-21T00:54:07;12.10;66.60
41437;DHT22;27178;49.460;10.850;2023-02-21T00:56:53;12.00;66.60
41437;DHT22;27178;49.460;10.850;2023-02-21T00:59:39;12.00;66.60
41437;DHT22;27178;49.460;10.850;2023-02-21T01:02:25;12.00;66.60
41437;DHT22;27178;49.460;10.850;2023-02-21T01:05:12;12.00;66.60
41437;DHT22;27178;49.460;10.850;2023-02-21T01:07:58;12.00;67.50
41437;DHT22;27178;49.460;10.850;2023-02-21T01:10:44;12.00;66.60
41437;DHT22;27178;49.460;10.850;2023-02-21T01:13:30;12.00;66.70
41437;DHT22;27178;49.460;10.850;2023-02-21T01:16:15;11.90;66.60
41437;DHT22;27178;49.460;10.850;2023-02-21T01:19:01;11.90;66.80
41437;DHT22;27178;49.460;10.850;2023-02-21T01:21:48;11.90;67.00
41437;DHT22;27178;49.460;10.850;2023-02-21T01:24:33;11.90;67.00
41437;DHT22;27178;49.460;10.850;2023-02-21T01:27:19;11.80;66.90
41437;DHT22;27178;49.460;10.850;2023-02-21T01:30:05;11.80;67.00
41437;DHT22;27178;49.460;10.850;2023-02-21T01:32:51;11.80;67.90
41437;DHT22;27178;49.460;10.850;2023-02-21T01:35:37;11.80;67.00
41437;DHT22;27178;49.460;10.850;2023-02-21T01:38:23;11.70;67.00
41437;DHT22;27178;49.460;10.850;2023-02-21T01:41:09;11.70;67.20
41437;DHT22;27178;49.460;10.850;2023-02-21T01:44:00;11.70;68.30
41437;DHT22;27178;49.460;10.850;2023-02-21T01:46:46;11.70;67.50
41437;DHT22;27178;49.460;10.850;2023-02-21T01:49:33;11.60;67.30
41437;DHT22;27178;49.460;10.850;2023-02-21T01:52:20;11.60;67.30
41437;DHT22;27178;49.460;10.850;2023-02-21T01:55:07;11.60;67.50
41437;DHT22;27178;49.460;10.850;2023-02-21T01:57:54;11.60;67.60
41437;DHT22;27178;49.460;10.850;2023-02-21T02:00:40;11.50;67.50
41437;DHT22;27178;49.460;10.850;2023-02-21T02:03:26;11.50;67.50
41437;DHT22;27178;49.460;10.850;2023-02-21T02:06:14;11.50;67.50
41437;DHT22;27178;49.460;10.850;2023-02-21T02:09:13;11.40;67.50
41437;DHT22;27178;49.460;10.850;2023-02-21T02:12:12;11.40;67.70
41437;DHT22;27178;49.460;10.850;2023-02-21T02:18:16;11.30;67.80
41437;DHT22;27178;49.460;10.850;2023-02-21T02:21:19;11.20;67.70
41437;DHT22;27178;49.460;10.850;2023-02-21T02:30:15;11.10;68.20
41437;DHT22;27178;49.460;10.850;2023-02-21T02:35:46;11.10;68.40
41437;DHT22;27178;49.460;10.850;2023-02-21T02:38:22;11.10;68.20
41437;DHT22;27178;49.460;10.850;2023-02-21T02:40:58;11.00;68.30
41437;DHT22;27178;49.460;10.850;2023-02-21T02:43:30;11.00;68.50
41437;DHT22;27178;49.460;10.850;2023-02-21T02:46:03;11.00;68.80
41437;DHT22;27178;49.460;10.850;2023-02-21T02:48:35;11.00;69.00
41437;DHT22;27178;49.460;10.850;2023-02-21T02:51:08;10.90;68.80
41437;DHT22;27178;49.460;10.850;2023-02-21T02:53:38;10.90;68.90
41437;DHT22;27178;49.460;10.850;2023-02-21T02:56:09;10.90;68.80
41437;DHT22;27178;49.460;10.850;2023-02-21T02:58:41;10.90;68.90
41437;DHT22;27178;49.460;10.850;2023-02-21T03:01:23;10.90;69.10
41437;DHT22;27178;49.460;10.850;2023-02-21T03:04:05;10.90;69.30
41437;DHT22;27178;49.460;10.850;2023-02-21T03:06:49;10.90;69.40
41437;DHT22;27178;49.460;10.850;2023-02-21T03:09:24;10.90;69.40
41437;DHT22;27178;49.460;10.850;2023-02-21T03:11:59;10.90;69.30
41437;DHT22;27178;49.460;10.850;2023-02-21T03:14:31;10.90;69.30
41437;DHT22;27178;49.460;10.850;2023-02-21T03:17:05;10.80;69.30
41437;DHT22;27178;49.460;10.850;2023-02-21T03:19:38;10.90;69.40
41437;DHT22;27178;49.460;10.850;2023-02-21T03:22:11;10.80;69.50
41437;DHT22;27178;49.460;10.850;2023-02-21T03:24:42;10.80;69.50
41437;DHT22;27178;49.460;10.850;2023-02-21T03:27:12;10.80;69.50
41437;DHT22;27178;49.460;10.850;2023-02-21T03:29:41;10.80;69.40
41437;DHT22;27178;49.460;10.850;2023-02-21T03:32:12;10.80;69.50
41437;DHT22;27178;49.460;10.850;2023-02-21T03:34:43;10.80;69.60
41437;DHT22;27178;49.460;10.850;2023-02-21T03:37:20;10.80;69.60
41437;DHT22;27178;49.460;10.850;2023-02-21T03:39:49;10.70;69.80
41437;DHT22;27178;49.460;10.850;2023-02-21T03:42:17;10.70;69.60
41437;DHT22;27178;49.460;10.850;2023-02-21T03:44:46;10.70;69.60
41437;DHT22;27178;49.460;10.850;2023-02-21T03:47:15;10.70;69.90
41437;DHT22;27178;49.460;10.850;2023-02-21T03:49:44;10.70;70.20
41437;DHT22;27178;49.460;10.850;2023-02-21T03:52:13;10.70;70.30
41437;DHT22;27178;49.460;10.850;2023-02-21T03:54:43;10.80;70.50
41437;DHT22;27178;49.460;10.850;2023-02-21T03:57:11;10.80;70.50
41437;DHT22;27178;49.460;10.850;2023-02-21T03:59:41;10.80;70.50
41437;DHT22;27178;49.460;10.850;2023-02-21T04:02:09;10.80;70.60
41437;DHT22;27178;49.460;10.850;2023-02-21T04:04:37;10.90;70.60
41437;DHT22;27178;49.460;10.850;2023-02-21T04:07:06;10.90;70.50
41437;DHT22;27178;49.460;10.850;2023-02-21T04:09:34;10.90;70.40
41437;DHT22;27178;49.460;10.850;2023-02-21T04:12:04;10.90;70.50
41437;DHT22;27178;49.460;10.850;2023-02-21T04:14:33;11.00;70.50
41437;DHT22;27178;49.460;10.850;2023-02-21T04:17:01;11.00;70.30
41437;DHT22;27178;49.460;10.850;2023-02-21T04:19:29;11.00;70.30
41437;DHT22;27178;49.460;10.850;2023-02-21T04:21:57;11.00;70.50
41437;DHT22;27178;49.460;10.850;2023-02-21T04:24:26;11.00;70.50
41437;DHT22;27178;49.460;10.850;2023-02-21T04:26:55;11.00;70.30
41437;DHT22;27178;49.460;10.850;2023-02-21T04:29:25;11.00;70.20
41437;DHT22;27178;49.460;10.850;2023-02-21T04:31:54;11.10;70.30
41437;DHT22;27178;49.460;10.850;2023-02-21T04:34:22;11.00;70.10
41437;DHT22;27178;49.460;10.850;2023-02-21T04:36:51;11.10;70.10
41437;DHT22;27178;49.460;10.850;2023-02-21T04:39:19;11.00;70.00
41437;DHT22;27178;49.460;10.850;2023-02-21T04:41:48;11.00;70.10
41437;DHT22;27178;49.460;10.850;2023-02-21T04:44:16;11.00;70.10
41437;DHT22;27178;49.460;10.850;2023-02-21T04:46:46;11.00;70.20
41437;DHT22;27178;49.460;10.850;2023-02-21T04:49:14;11.00;70.20
41437;DHT22;27178;49.460;10.850;2023-02-21T04:51:42;11.00;70.30
41437;DHT22;27178;49.460;10.850;2023-02-21T04:54:11;11.00;70.40
41437;DHT22;27178;49.460;10.850;2023-02-21T04:56:39;11.00;70.30
41437;DHT22;27178;49.460;10.850;2023-02-21T04:59:08;11.00;70.30
41437;DHT22;27178;49.460;10.850;2023-02-21T05:01:36;11.00;70.30
41437;DHT22;27178;49.460;10.850;2023-02-21T05:04:06;11.00;70.30
41437;DHT22;27178;49.460;10.850;2023-02-21T05:06:35;10.90;70.40
41437;DHT22;27178;49.460;10.850;2023-02-21T05:09:03;10.90;70.30
41437;DHT22;27178;49.460;10.850;2023-02-21T05:11:32;10.90;70.30
41437;DHT22;27178;49.460;10.850;2023-02-21T05:14:01;10.90;70.40
41437;DHT22;27178;49.460;10.850;2023-02-21T05:16:30;10.90;70.50
41437;DHT22;27178;49.460;10.850;2023-02-21T05:18:58;10.90;70.50
41437;DHT22;27178;49.460;10.850;2023-02-21T05:21:34;10.90;70.60
41437;DHT22;27178;49.460;10.850;2023-02-21T05:24:04;10.90;70.80
41437;DHT22;27178;49.460;10.850;2023-02-21T05:26:34;10.80;70.60
41437;DHT22;27178;49.460;10.850;2023-02-21T05:29:03;10.80;70.70
41437;DHT22;27178;49.460;10.850;2023-02-21T05:31:32;10.80;70.90
41437;DHT22;27178;49.460;10.850;2023-02-21T05:34:01;10.80;70.80
41437;DHT22;27178;49.460;10.850;2023-02-21T05:36:31;10.80;70.90
41437;DHT22;27178;49.460;10.850;2023-02-21T05:39:00;10.80;71.00
41437;DHT22;27178;49.460;10.850;2023-02-21T05:41:28;10.80;72.00
41437;DHT22;27178;49.460;10.850;2023-02-21T05:43:57;10.80;71.10
41437;DHT22;27178;49.460;10.850;2023-02-21T05:46:27;10.80;71.10
41437;DHT22;27178;49.460;10.850;2023-02-21T05:48:57;10.80;71.20
41437;DHT22;27178;49.460;10.850;2023-02-21T05:51:26;10.90;71.40
41437;DHT22;27178;49.460;10.850;2023-02-21T05:53:56;10.90;70.70
41437;DHT22;27178;49.460;10.850;2023-02-21T05:56:24;10.90;71.50
41437;DHT22;27178;49.460;10.850;2023-02-21T05:58:53;10.90;71.40
41437;DHT22;27178;49.460;10.850;2023-02-21T06:01:21;10.90;71.40
41437;DHT22;27178;49.460;10.850;2023-02-21T06:03:50;10.90;71.40
41437;DHT22;27178;49.460;10.850;2023-02-21T06:06:18;10.90;71.40
41437;DHT22;27178;49.460;10.850;2023-02-21T06:08:48;10.90;71.40
41437;DHT22;27178;49.460;10.850;2023-02-21T06:11:23;10.90;71.50
41437;DHT22;27178;49.460;10.850;2023-02-21T06:13:54;10.90;71.60
41437;DHT22;27178;49.460;10.850;2023-02-21T06:16:23;10.90;71.40
41437;DHT22;27178;49.460;10.850;2023-02-21T06:18:54;10.90;71.50
41437;DHT22;27178;49.460;10.850;2023-02-21T06:21:22;10.90;71.70
41437;DHT22;27178;49.460;10.850;2023-02-21T06:23:51;11.00;71.60
41437;DHT22;27178;49.460;10.850;2023-02-21T06:26:20;10.90;71.60
41437;DHT22;27178;49.460;10.850;2023-02-21T06:28:50;11.00;71.70
41437;DHT22;27178;49.460;10.850;2023-02-21T06:31:19;11.00;71.70
41437;DHT22;27178;49.460;10.850;2023-02-21T06:33:48;11.00;71.80
41437;DHT22;27178;49.460;10.850;2023-02-21T06:36:19;11.00;71.80
41437;DHT22;27178;49.460;10.850;2023-02-21T06:38:49;11.00;71.80
41437;DHT22;27178;49.460;10.850;2023-02-21T06:41:20;11.00;71.80
41437;DHT22;27178;49.460;10.850;2023-02-21T06:43:51;11.00;71.90
41437;DHT22;27178;49.460;10.850;2023-02-21T06:46:22;11.00;71.80
41437;DHT22;27178;49.460;10.850;2023-02-21T06:48:51;11.00;71.80
41437;DHT22;27178;49.460;10.850;2023-02-21T06:51:19;11.00;71.70
41437;DHT22;27178;49.460;10.850;2023-02-21T06:53:56;11.10;71.80
41437;DHT22;27178;49.460;10.850;2023-02-21T06:56:25;11.00;71.80
41437;DHT22;27178;49.460;10.850;2023-02-21T06:58:54;11.10;71.80
41437;DHT22;27178;49.460;10.850;2023-02-21T07:01:24;11.10;71.80
41437;DHT22;27178;49.460;10.850;2023-02-21T07:03:54;11.00;71.70
41437;DHT22;27178;49.460;10.850;2023-02-21T07:06:23;11.10;71.80
41437;DHT22;27178;49.460;10.850;2023-02-21T07:08:55;11.10;71.80
41437;DHT22;27178;49.460;10.850;2023-02-21T07:11:24;11.10;71.80
41437;DHT22;27178;49.460;10.850;2023-02-21T07:13:54;11.10;71.80
41437;DHT22;27178;49.460;10.850;2023-02-21T07:16:25;11.10;71.90
41437;DHT22;27178;49.460;10.850;2023-02-21T07:18:54;9.90;71.10
41437;DHT22;27178;49.460;10.850;2023-02-21T07:21:22;11.20;72.00
41437;DHT22;27178;49.460;10.850;2023-02-21T07:23:52;11.20;72.10
41437;DHT22;27178;49.460;10.850;2023-02-21T07:26:20;11.20;72.00
41437;DHT22;27178;49.460;10.850;2023-02-21T07:28:49;11.20;72.00
41437;DHT22;27178;49.460;10.850;2023-02-21T07:31:19;11.20;72.00
41437;DHT22;27178;49.460;10.850;2023-02-21T07:33:47;11.20;72.20
41437;DHT22;27178;49.460;10.850;2023-02-21T07:36:16;11.30;72.20
41437;DHT22;27178;49.460;10.850;2023-02-21T07:38:45;11.30;72.20
41437;DHT22;27178;49.460;10.850;2023-02-21T07:41:14;11.30;72.20
41437;DHT22;27178;49.460;10.850;2023-02-21T07:43:43;11.30;72.20
41437;DHT22;27178;49.460;10.850;2023-02-21T07:46:12;11.40;72.30
41437;DHT22;27178;49.460;10.850;2023-02-21T07:48:43;11.40;72.30
41437;DHT22;27178;49.460;10.850;2023-02-21T07:51:11;11.40;72.20
41437;DHT22;27178;49.460;10.850;2023-02-21T07:53:40;11.50;72.10
41437;DHT22;27178;49.460;10.850;2023-02-21T07:56:08;11.50;71.90
41437;DHT22;27178;49.460;10.850;2023-02-21T07:58:37;11.50;72.00
41437;DHT22;27178;49.460;10.850;2023-02-21T08:01:06;11.50;71.90
41437;DHT22;27178;49.460;10.850;2023-02-21T08:03:34;11.50;71.90
41437;DHT22;27178;49.460;10.850;2023-02-21T08:06:05;11.50;71.80
41437;DHT22;27178;49.460;10.850;2023-02-21T08:08:33;11.60;72.00
41437;DHT22;27178;49.460;10.850;2023-02-21T08:11:02;11.50;71.90
41437;DHT22;27178;49.460;10.850;2023-02-21T08:13:30;11.50;71.80
41437;DHT22;27178;49.460;10.850;2023-02-21T08:15:59;11.50;71.80
41437;DHT22;27178;49.460;10.850;2023-02-21T08:18:27;11.50;71.90
41437;DHT22;27178;49.460;10.850;2023-02-21T08:20:56;11.60;72.10
41437;DHT22;27178;49.460;10.850;2023-02-21T08:23:26;11.60;72.10
41437;DHT22;27178;49.460;10.850;2023-02-21T08:25:54;11.60;72.20
41437;DHT22;27178;49.460;10.850;2023-02-21T08:28:22;11.60;72.20
41437;DHT22;27178;49.460;10.850;2023-02-21T08:30:50;11.60;72.30
41437;DHT22;27178;49.460;10.850;2023-02-21T08:33:20;11.60;72.30
41437;DHT22;27178;49.460;10.850;2023-02-21T08:35:48;11.60;72.20
41437;DHT22;27178;49.460;10.850;2023-02-21T08:38:18;11.60;72.20
41437;DHT22;27178;49.460;10.850;2023-02-21T08:40:48;11.60;72.40
41437;DHT22;27178;49.460;10.850;2023-02-21T08:43:17;11.70;72.50
41437;DHT22;27178;49.460;10.850;2023-02-21T08:45:45;11.70;72.70
41437;DHT22;27178;49.460;10.850;2023-02-21T08:48:14;11.70;72.70
41437;DHT22;27178;49.460;10.850;2023-02-21T08:50:42;11.80;72.80
41437;DHT22;27178;49.460;10.850;2023-02-21T08:53:11;11.90;72.90
41437;DHT22;27178;49.460;10.850;2023-02-21T08:55:41;11.90;73.10
41437;DHT22;27178;49.460;10.850;2023-02-21T08:58:12;12.00;73.10
41437;DHT22;27178;49.460;10.850;2023-02-21T09:00:40;12.00;73.20
41437;DHT22;27178;49.460;10.850;2023-02-21T09:03:09;12.10;73.20
41437;DHT22;27178;49.460;10.850;2023-02-21T09:05:38;12.20;74.20
41437;DHT22;27178;49.460;10.850;2023-02-21T09:08:06;12.20;73.10
41437;DHT22;27178;49.460;10.850;2023-02-21T09:10:36;12.30;73.00
41437;DHT22;27178;49.460;10.850;2023-02-21T09:13:15;12.30;73.00
41437;DHT22;27178;49.460;10.850;2023-02-21T09:15:43;12.40;73.10
41437;DHT22;27178;49.460;10.850;2023-02-21T09:18:11;12.40;72.90
41437;DHT22;27178;49.460;10.850;2023-02-21T09:20:39;12.50;72.90
41437;DHT22;27178;49.460;10.850;2023-02-21T09:23:09;12.50;72.90
41437;DHT22;27178;49.460;10.850;2023-02-21T09:25:37;12.60;72.90
41437;DHT22;27178;49.460;10.850;2023-02-21T09:28:05;12.60;72.80
41437;DHT22;27178;49.460;10.850;2023-02-21T09:30:35;12.60;72.70
41437;DHT22;27178;49.460;10.850;2023-02-21T09:33:04;12.70;72.90
41437;DHT22;27178;49.460;10.850;2023-02-21T09:35:32;12.70;72.80
41437;DHT22;27178;49.460;10.850;2023-02-21T09:38:02;12.70;72.70
41437;DHT22;27178;49.460;10.850;2023-02-21T09:40:36;12.80;72.70
41437;DHT22;27178;49.460;10.850;2023-02-21T09:43:11;12.80;72.80
41437;DHT22;27178;49.460;10.850;2023-02-21T09:45:43;12.90;72.70
41437;DHT22;27178;49.460;10.850;2023-02-21T09:48:14;12.90;72.60
41437;DHT22;27178;49.460;10.850;2023-02-21T09:50:51;12.90;72.40
41437;DHT22;27178;49.460;10.850;2023-02-21T09:53:23;13.00;72.50
41437;DHT22;27178;49.460;10.850;2023-02-21T09:55:56;13.00;72.60
41437;DHT22;27178;49.460;10.850;2023-02-21T09:58:26;13.00;72.50
41437;DHT22;27178;49.460;10.850;2023-02-21T10:00:59;13.00;72.40
41437;DHT22;27178;49.460;10.850;2023-02-21T10:03:43;13.10;72.50
41437;DHT22;27178;49.460;10.850;2023-02-21T10:06:25;13.10;72.60
41437;DHT22;27178;49.460;10.850;2023-02-21T10:09:00;13.10;72.50
41437;DHT22;27178;49.460;10.850;2023-02-21T10:11:40;13.10;72.50
41437;DHT22;27178;49.460;10.850;2023-02-21T10:14:18;13.20;72.40
41437;DHT22;27178;49.460;10.850;2023-02-21T10:16:56;13.20;72.60
41437;DHT22;27178;49.460;10.850;2023-02-21T10:19:30;13.20;72.50
41437;DHT22;27178;49.460;10.850;2023-02-21T10:21:59;13.30;72.60
41437;DHT22;27178;49.460;10.850;2023-02-21T10:24:30;13.30;72.60
41437;DHT22;27178;49.460;10.850;2023-02-21T10:27:00;13.40;72.70
41437;DHT22;27178;49.460;10.850;2023-02-21T10:29:37;13.40;72.60
41437;DHT22;27178;49.460;10.850;2023-02-21T10:32:08;13.50;72.70
41437;DHT22;27178;49.460;10.850;2023-02-21T10:34:36;13.60;72.60
41437;DHT22;27178;49.460;10.850;2023-02-21T10:37:31;13.60;72.60
41437;DHT22;27178;49.460;10.850;2023-02-21T10:40:04;13.70;73.50
41437;DHT22;27178;49.460;10.850;2023-02-21T10:42:38;13.70;72.30
41437;DHT22;27178;49.460;10.850;2023-02-21T10:45:10;13.80;72.50
41437;DHT22;27178;49.460;10.850;2023-02-21T10:47:48;13.80;72.40
41437;DHT22;27178;49.460;10.850;2023-02-21T10:50:37;13.90;72.50
41437;DHT22;27178;49.460;10.850;2023-02-21T10:53:06;13.90;72.30
41437;DHT22;27178;49.460;10.850;2023-02-21T10:55:35;14.00;72.30
41437;DHT22;27178;49.460;10.850;2023-02-21T10:58:08;14.00;72.20
41437;DHT22;27178;49.460;10.850;2023-02-21T11:00:38;14.10;72.20
41437;DHT22;27178;49.460;10.850;2023-02-21T11:03:20;14.10;72.10
41437;DHT22;27178;49.460;10.850;2023-02-21T11:05:51;14.10;72.20
41437;DHT22;27178;49.460;10.850;2023-02-21T11:08:34;14.20;72.00
41437;DHT22;27178;49.460;10.850;2023-02-21T11:11:04;14.20;72.00
41437;DHT22;27178;49.460;10.850;2023-02-21T11:13:33;14.30;71.90
41437;DHT22;27178;49.460;10.850;2023-02-21T11:16:10;14.30;71.90
41437;DHT22;27178;49.460;10.850;2023-02-21T11:18:40;14.30;71.90
41437;DHT22;27178;49.460;10.850;2023-02-21T11:21:12;14.30;71.90
41437;DHT22;27178;49.460;10.850;2023-02-21T11:23:52;14.30;71.90
41437;DHT22;27178;49.460;10.850;2023-02-21T11:26:24;14.40;71.90
41437;DHT22;27178;49.460;10.850;2023-02-21T11:28:53;14.40;71.90
41437;DHT22;27178;49.460;10.850;2023-02-21T11:31:27;14.40;71.90
41437;DHT22;27178;49.460;10.850;2023-02-21T11:33:59;14.50;72.00
41437;DHT22;27178;49.460;10.850;2023-02-21T11:36:30;14.60;72.20
41437;DHT22;27178;49.460;10.850;2023-02-21T11:39:02;14.70;72.30
41437;DHT22;27178;49.460;10.850;2023-02-21T11:41:36;14.80;72.00
41437;DHT22;27178;49.460;10.850;2023-02-21T11:44:26;14.90;71.60
41437;DHT22;27178;49.460;10.850;2023-02-21T11:47:03;14.90;71.50
41437;DHT22;27178;49.460;10.850;2023-02-21T11:49:42;15.00;71.20
41437;DHT22;27178;49.460;10.850;2023-02-21T11:52:21;15.00;71.00
41437;DHT22;27178;49.460;10.850;2023-02-21T11:54:50;15.00;71.10
41437;DHT22;27178;49.460;10.850;2023-02-21T11:57:23;15.00;71.10
41437;DHT22;27178;49.460;10.850;2023-02-21T12:00:00;14.90;71.00
41437;DHT22;27178;49.460;10.850;2023-02-21T12:05:55;15.00;70.80
41437;DHT22;27178;49.460;10.850;2023-02-21T12:08:39;15.00;70.90
41437;DHT22;27178;49.460;10.850;2023-02-21T12:11:21;15.10;71.40
41437;DHT22;27178;49.460;10.850;2023-02-21T12:14:03;15.20;71.90
41437;DHT22;27178;49.460;10.850;2023-02-21T12:16:42;15.30;72.10
41437;DHT22;27178;49.460;10.850;2023-02-21T12:19:33;15.50;71.90
41437;DHT22;27178;49.460;10.850;2023-02-21T12:22:16;15.60;71.50
41437;DHT22;27178;49.460;10.850;2023-02-21T12:24:56;15.80;71.00
41437;DHT22;27178;49.460;10.850;2023-02-21T12:27:33;16.00;70.40
41437;DHT22;27178;49.460;10.850;2023-02-21T12:30:21;16.00;70.00
41437;DHT22;27178;49.460;10.850;2023-02-21T12:33:00;16.00;69.60
41437;DHT22;27178;49.460;10.850;2023-02-21T12:35:49;16.00;69.40
41437;DHT22;27178;49.460;10.850;2023-02-21T12:38:30;16.00;69.60
41437;DHT22;27178;49.460;10.850;2023-02-21T12:41:18;16.00;69.40
41437;DHT22;27178;49.460;10.850;2023-02-21T12:43:53;16.00;69.60
41437;DHT22;27178;49.460;10.850;2023-02-21T12:46:27;16.00;69.60
41437;DHT22;27178;49.460;10.850;2023-02-21T12:49:02;16.00;69.60
41437;DHT22;27178;49.460;10.850;2023-02-21T12:51:35;16.00;69.70
41437;DHT22;27178;49.460;10.850;2023-02-21T12:54:11;16.00;70.20
41437;DHT22;27178;49.460;10.850;2023-02-21T12:56:46;16.10;70.30
41437;DHT22;27178;49.460;10.850;2023-02-21T12:59:20;16.20;70.50
41437;DHT22;27178;49.460;10.850;2023-02-21T13:01:54;16.40;70.70
41437;DHT22;27178;49.460;10.850;2023-02-21T13:04:31;16.60;70.90
41437;DHT22;27178;49.460;10.850;2023-02-21T13:07:05;16.80;70.60
41437;DHT22;27178;49.460;10.850;2023-02-21T13:09:44;17.10;70.60
41437;DHT22;27178;49.460;10.850;2023-02-21T13:12:18;17.40;70.20
41437;DHT22;27178;49.460;10.850;2023-02-21T13:14:49;17.60;69.90
41437;DHT22;27178;49.460;10.850;2023-02-21T13:17:18;17.90;69.70
41437;DHT22;27178;49.460;10.850;2023-02-21T13:19:49;18.20;69.30
41437;DHT22;27178;49.460;10.850;2023-02-21T13:25:41;18.70;67.80
41437;DHT22;27178;49.460;10.850;2023-02-21T13:28:14;18.90;66.60
41437;DHT22;27178;49.460;10.850;2023-02-21T13:30:46;19.10;66.10
41437;DHT22;27178;49.460;10.850;2023-02-21T13:33:27;19.20;65.70
41437;DHT22;27178;49.460;10.850;2023-02-21T13:35:58;19.30;64.40
41437;DHT22;27178;49.460;10.850;2023-02-21T13:38:28;19.30;64.80
41437;DHT22;27178;49.460;10.850;2023-02-21T13:41:08;19.30;64.60
41437;DHT22;27178;49.460;10.850;2023-02-21T13:43:45;19.30;64.00
41437;DHT22;27178;49.460;10.850;2023-02-21T13:49:52;19.40;64.20
41437;DHT22;27178;49.460;10.850;2023-02-21T13:55:26;19.80;63.80
41437;DHT22;27178;49.460;10.850;2023-02-21T13:58:28;19.90;64.30
41437;DHT22;27178;49.460;10.850;2023-02-21T14:01:21;20.10;63.50
41437;DHT22;27178;49.460;10.850;2023-02-21T14:03:54;20.30;63.30
41437;DHT22;27178;49.460;10.850;2023-02-21T14:06:31;20.40;63.80
41437;DHT22;27178;49.460;10.850;2023-02-21T14:09:09;20.60;62.90
41437;DHT22;27178;49.460;10.850;2023-02-21T14:11:43;20.80;62.80
41437;DHT22;27178;49.460;10.850;2023-02-21T14:14:24;21.00;62.10
41437;DHT22;27178;49.460;10.850;2023-02-21T14:16:59;21.20;61.40
41437;DHT22;27178;49.460;10.850;2023-02-21T14:19:33;21.40;61.00
41437;DHT22;27178;49.460;10.850;2023-02-21T14:22:11;21.60;60.80
41437;DHT22;27178;49.460;10.850;2023-02-21T14:24:42;21.70;60.20
41437;DHT22;27178;49.460;10.850;2023-02-21T14:27:36;21.80;60.00
41437;DHT22;27178;49.460;10.850;2023-02-21T14:30:31;21.90;59.00
41437;DHT22;27178;49.460;10.850;2023-02-21T14:33:21;21.90;58.70
41437;DHT22;27178;49.460;10.850;2023-02-21T14:36:01;21.90;58.50
41437;DHT22;27178;49.460;10.850;2023-02-21T14:38:37;21.80;58.80
41437;DHT22;27178;49.460;10.850;2023-02-21T14:41:15;21.90;59.10
41437;DHT22;27178;49.460;10.850;2023-02-21T14:44:15;21.90;59.50
41437;DHT22;27178;49.460;10.850;2023-02-21T14:47:08;22.00;58.40
41437;DHT22;27178;49.460;10.850;2023-02-21T14:49:57;22.00;58.10
41437;DHT22;27178;49.460;10.850;2023-02-21T14:52:49;22.00;57.80
41437;DHT22;27178;49.460;10.850;2023-02-21T14:55:30;22.00;57.90
41437;DHT22;27178;49.460;10.850;2023-02-21T14:58:18;22.00;58.20
41437;DHT22;27178;49.460;10.850;2023-02-21T15:01:02;22.10;58.00
41437;DHT22;27178;49.460;10.850;2023-02-21T15:03:40;22.20;58.20
41437;DHT22;27178;49.460;10.850;2023-02-21T15:06:11;22.30;58.30
41437;DHT22;27178;49.460;10.850;2023-02-21T15:08:45;22.40;58.50
41437;DHT22;27178;49.460;10.850;2023-02-21T15:11:21;22.60;58.30
41437;DHT22;27178;49.460;10.850;2023-02-21T15:14:13;22.70;57.70
41437;DHT22;27178;49.460;10.850;2023-02-21T15:16:52;22.90;57.40
41437;DHT22;27178;49.460;10.850;2023-02-21T15:19:26;23.00;57.60
41437;DHT22;27178;49.460;10.850;2023-02-21T15:22:22;23.10;57.30
41437;DHT22;27178;49.460;10.850;2023-02-21T15:25:14;23.20;56.90
41437;DHT22;27178;49.460;10.850;2023-02-21T15:27:57;23.30;56.30
41437;DHT22;27178;49.460;10.850;2023-02-21T15:30:38;23.40;56.30
41437;DHT22;27178;49.460;10.850;2023-02-21T15:33:11;23.40;56.90
41437;DHT22;27178;49.460;10.850;2023-02-21T15:35:48;23.30;55.60
41437;DHT22;27178;49.460;10.850;2023-02-21T15:38:22;23.10;55.60
41437;DHT22;27178;49.460;10.850;2023-02-21T15:40:54;22.90;55.60
41437;DHT22;27178;49.460;10.850;2023-02-21T15:43:29;22.70;55.80
41437;DHT22;27178;49.460;10.850;2023-02-21T15:46:00;22.40;55.90
41437;DHT22;27178;49.460;10.850;2023-02-21T15:48:29;22.20;56.00
41437;DHT22;27178;49.460;10.850;2023-02-21T15:51:03;21.90;56.30
41437;DHT22;27178;49.460;10.850;2023-02-21T15:53:32;21.60;56.40
41437;DHT22;27178;49.460;10.850;2023-02-21T15:56:20;21.40;56.70
41437;DHT22;27178;49.460;10.850;2023-02-21T15:59:08;21.10;56.80
41437;DHT22;27178;49.460;10.850;2023-02-21T16:01:36;20.90;57.20
41437;DHT22;27178;49.460;10.850;2023-02-21T16:04:16;20.70;57.50
41437;DHT22;27178;49.460;10.850;2023-02-21T16:06:53;20.40;57.70
41437;DHT22;27178;49.460;10.850;2023-02-21T16:09:25;20.20;57.90
41437;DHT22;27178;49.460;10.850;2023-02-21T16:11:58;20.00;58.20
41437;DHT22;27178;49.460;10.850;2023-02-21T16:14:36;19.80;58.30
41437;DHT22;27178;49.460;10.850;2023-02-21T16:19:57;19.40;58.70
41437;DHT22;27178;49.460;10.850;2023-02-21T16:22:30;19.30;59.00
41437;DHT22;27178;49.460;10.850;2023-02-21T16:25:17;19.10;59.30
41437;DHT22;27178;49.460;10.850;2023-02-21T16:27:49;19.00;59.40
41437;DHT22;27178;49.460;10.850;2023-02-21T16:30:21;18.80;59.60
41437;DHT22;27178;49.460;10.850;2023-02-21T16:32:52;18.70;59.80